sensor_id;sensor_type;location;lat;lon;timestamp;P1;durP1;ratioP1;P2;durP2;ratioP2
59922;SDS011;45778;51.142;3.732;2022-10-14T00:02:11;27.95;;;22.50;;
59922;SDS011;45778;51.142;3.732;2022-10-14T00:04:37;25.92;;;22.90;;
59922;SDS011;45778;51.142;3.732;2022-10-14T00:07:03;34.17;;;25.13;;
59922;SDS011;45778;51.142;3.732;2022-10-14T00:09:28;33.67;;;26.25;;
59922;SDS011;45778;51.142;3.732;2022-10-14T00:11:54;35.50;;;27.40;;
59922;SDS011;45778;51.142;3.732;2022-10-14T00:14:20;31.80;;;26.23;;
59922;SDS011;45778;51.142;3.732;2022-10-14T00:16:47;29.17;;;22.88;;
59922;SDS011;45778;51.142;3.732;2022-10-14T00:19:16;30.88;;;24.10;;
59922;SDS011;45778;51.142;3.732;2022-10-14T00:21:43;32.38;;;23.42;;
59922;SDS011;45778;51.142;3.732;2022-10-14T00:24:10;28.23;;;22.50;;
59922;SDS011;45778;51.142;3.732;2022-10-14T00:26:38;31.27;;;24.70;;
59922;SDS011;45778;51.142;3.732;2022-10-14T00:29:05;32.40;;;26.38;;
59922;SDS011;45778;51.142;3.732;2022-10-14T00:31:33;34.63;;;27.00;;
59922;SDS011;45778;51.142;3.732;2022-10-14T00:33:59;35.83;;;27.45;;
59922;SDS011;45778;51.142;3.732;2022-10-14T00:36:25;34.63;;;25.92;;
59922;SDS011;45778;51.142;3.732;2022-10-14T00:38:51;38.45;;;26.88;;
59922;SDS011;45778;51.142;3.732;2022-10-14T00:41:25;37.05;;;27.05;;
59922;SDS011;45778;51.142;3.732;2022-10-14T00:46:32;37.75;;;26.88;;
59922;SDS011;45778;51.142;3.732;2022-10-14T00:49:03;37.65;;;28.10;;
59922;SDS011;45778;51.142;3.732;2022-10-14T00:51:32;35.42;;;25.92;;
59922;SDS011;45778;51.142;3.732;2022-10-14T00:54:01;36.75;;;26.73;;
59922;SDS011;45778;51.142;3.732;2022-10-14T00:56:27;39.60;;;26.65;;
59922;SDS011;45778;51.142;3.732;2022-10-14T00:58:54;39.53;;;26.77;;
59922;SDS011;45778;51.142;3.732;2022-10-14T01:01:21;36.90;;;27.00;;
59922;SDS011;45778;51.142;3.732;2022-10-14T01:03:46;38.95;;;27.73;;
59922;SDS011;45778;51.142;3.732;2022-10-14T01:22:46;34.80;;;26.95;;
59922;SDS011;45778;51.142;3.732;2022-10-14T01:28:17;38.80;;;27.50;;
59922;SDS011;45778;51.142;3.732;2022-10-14T01:31:13;35.40;;;27.13;;
59922;SDS011;45778;51.142;3.732;2022-10-14T01:33:42;35.42;;;26.90;;
59922;SDS011;45778;51.142;3.732;2022-10-14T01:36:13;41.08;;;27.23;;
59922;SDS011;45778;51.142;3.732;2022-10-14T01:41:27;40.55;;;28.90;;
59922;SDS011;45778;51.142;3.732;2022-10-14T01:44:02;39.38;;;27.15;;
59922;SDS011;45778;51.142;3.732;2022-10-14T01:46:32;36.88;;;26.38;;
59922;SDS011;45778;51.142;3.732;2022-10-14T01:49:02;41.25;;;28.10;;
59922;SDS011;45778;51.142;3.732;2022-10-14T01:51:38;38.35;;;27.52;;
59922;SDS011;45778;51.142;3.732;2022-10-14T01:54:09;39.85;;;28.48;;
59922;SDS011;45778;51.142;3.732;2022-10-14T01:56:39;37.65;;;27.00;;
59922;SDS011;45778;51.142;3.732;2022-10-14T01:59:07;41.40;;;29.55;;
59922;SDS011;45778;51.142;3.732;2022-10-14T02:01:35;42.22;;;29.27;;
59922;SDS011;45778;51.142;3.732;2022-10-14T02:04:01;40.65;;;28.02;;
59922;SDS011;45778;51.142;3.732;2022-10-14T02:09:02;44.92;;;29.33;;
59922;SDS011;45778;51.142;3.732;2022-10-14T02:11:44;36.30;;;28.55;;
59922;SDS011;45778;51.142;3.732;2022-10-14T02:14:35;37.58;;;27.42;;
59922;SDS011;45778;51.142;3.732;2022-10-14T02:17:08;36.28;;;28.30;;
59922;SDS011;45778;51.142;3.732;2022-10-14T02:20:03;40.40;;;27.05;;
59922;SDS011;45778;51.142;3.732;2022-10-14T02:22:51;35.55;;;24.40;;
59922;SDS011;45778;51.142;3.732;2022-10-14T02:25:23;38.55;;;27.65;;
59922;SDS011;45778;51.142;3.732;2022-10-14T02:27:54;37.42;;;27.73;;
59922;SDS011;45778;51.142;3.732;2022-10-14T02:30:22;42.42;;;29.52;;
59922;SDS011;45778;51.142;3.732;2022-10-14T02:32:49;35.05;;;27.05;;
59922;SDS011;45778;51.142;3.732;2022-10-14T02:35:16;37.53;;;27.17;;
59922;SDS011;45778;51.142;3.732;2022-10-14T02:37:45;35.70;;;25.02;;
59922;SDS011;45778;51.142;3.732;2022-10-14T02:40:23;42.92;;;28.05;;
59922;SDS011;45778;51.142;3.732;2022-10-14T02:42:53;35.38;;;25.95;;
59922;SDS011;45778;51.142;3.732;2022-10-14T02:45:19;38.97;;;27.35;;
59922;SDS011;45778;51.142;3.732;2022-10-14T02:47:48;42.15;;;28.08;;
59922;SDS011;45778;51.142;3.732;2022-10-14T02:50:13;47.38;;;30.17;;
59922;SDS011;45778;51.142;3.732;2022-10-14T02:52:39;48.97;;;31.42;;
59922;SDS011;45778;51.142;3.732;2022-10-14T02:55:05;44.15;;;28.13;;
59922;SDS011;45778;51.142;3.732;2022-10-14T02:57:31;53.45;;;30.17;;
59922;SDS011;45778;51.142;3.732;2022-10-14T02:59:56;47.13;;;31.25;;
59922;SDS011;45778;51.142;3.732;2022-10-14T03:02:22;53.30;;;30.73;;
59922;SDS011;45778;51.142;3.732;2022-10-14T03:04:48;45.72;;;29.13;;
59922;SDS011;45778;51.142;3.732;2022-10-14T03:07:13;53.28;;;31.75;;
59922;SDS011;45778;51.142;3.732;2022-10-14T03:09:39;50.15;;;30.45;;
59922;SDS011;45778;51.142;3.732;2022-10-14T03:12:05;48.55;;;31.50;;
59922;SDS011;45778;51.142;3.732;2022-10-14T03:14:30;48.58;;;29.85;;
59922;SDS011;45778;51.142;3.732;2022-10-14T03:16:56;45.92;;;30.83;;
59922;SDS011;45778;51.142;3.732;2022-10-14T03:19:22;47.83;;;30.92;;
59922;SDS011;45778;51.142;3.732;2022-10-14T03:21:47;51.33;;;31.17;;
59922;SDS011;45778;51.142;3.732;2022-10-14T03:24:13;52.35;;;32.00;;
59922;SDS011;45778;51.142;3.732;2022-10-14T03:26:39;50.53;;;31.23;;
59922;SDS011;45778;51.142;3.732;2022-10-14T03:29:04;48.20;;;29.90;;
59922;SDS011;45778;51.142;3.732;2022-10-14T03:31:30;51.17;;;31.48;;
59922;SDS011;45778;51.142;3.732;2022-10-14T03:33:56;53.80;;;32.00;;
59922;SDS011;45778;51.142;3.732;2022-10-14T03:36:21;53.47;;;32.75;;
59922;SDS011;45778;51.142;3.732;2022-10-14T03:38:47;48.47;;;31.17;;
59922;SDS011;45778;51.142;3.732;2022-10-14T03:41:12;48.35;;;30.40;;
59922;SDS011;45778;51.142;3.732;2022-10-14T03:43:38;53.90;;;31.52;;
59922;SDS011;45778;51.142;3.732;2022-10-14T03:46:04;50.60;;;31.40;;
59922;SDS011;45778;51.142;3.732;2022-10-14T03:48:29;50.00;;;31.75;;
59922;SDS011;45778;51.142;3.732;2022-10-14T03:50:55;47.92;;;30.23;;
59922;SDS011;45778;51.142;3.732;2022-10-14T03:53:21;52.30;;;31.38;;
59922;SDS011;45778;51.142;3.732;2022-10-14T03:55:46;49.90;;;30.60;;
59922;SDS011;45778;51.142;3.732;2022-10-14T03:58:12;48.35;;;31.20;;
59922;SDS011;45778;51.142;3.732;2022-10-14T04:00:38;52.88;;;32.50;;
59922;SDS011;45778;51.142;3.732;2022-10-14T04:03:03;48.58;;;30.85;;
59922;SDS011;45778;51.142;3.732;2022-10-14T04:05:29;48.42;;;30.13;;
59922;SDS011;45778;51.142;3.732;2022-10-14T04:07:58;51.78;;;31.10;;
59922;SDS011;45778;51.142;3.732;2022-10-14T04:10:24;50.17;;;31.45;;
59922;SDS011;45778;51.142;3.732;2022-10-14T04:12:53;50.25;;;32.30;;
59922;SDS011;45778;51.142;3.732;2022-10-14T04:15:19;53.58;;;31.85;;
59922;SDS011;45778;51.142;3.732;2022-10-14T04:17:46;51.92;;;32.17;;
59922;SDS011;45778;51.142;3.732;2022-10-14T04:20:12;57.88;;;32.17;;
59922;SDS011;45778;51.142;3.732;2022-10-14T04:22:38;56.92;;;32.17;;
59922;SDS011;45778;51.142;3.732;2022-10-14T04:25:03;56.47;;;32.83;;
59922;SDS011;45778;51.142;3.732;2022-10-14T04:27:29;60.83;;;33.72;;
59922;SDS011;45778;51.142;3.732;2022-10-14T04:29:55;61.55;;;34.83;;
59922;SDS011;45778;51.142;3.732;2022-10-14T04:32:21;57.65;;;31.85;;
59922;SDS011;45778;51.142;3.732;2022-10-14T04:34:46;58.40;;;32.28;;
59922;SDS011;45778;51.142;3.732;2022-10-14T04:37:12;58.15;;;32.67;;
59922;SDS011;45778;51.142;3.732;2022-10-14T04:39:38;56.35;;;32.10;;
59922;SDS011;45778;51.142;3.732;2022-10-14T04:42:03;56.50;;;31.55;;
59922;SDS011;45778;51.142;3.732;2022-10-14T04:44:29;55.88;;;31.58;;
59922;SDS011;45778;51.142;3.732;2022-10-14T04:46:55;52.97;;;30.17;;
59922;SDS011;45778;51.142;3.732;2022-10-14T04:49:20;54.58;;;30.20;;
59922;SDS011;45778;51.142;3.732;2022-10-14T04:51:46;55.80;;;30.27;;
59922;SDS011;45778;51.142;3.732;2022-10-14T04:54:11;52.00;;;28.60;;
59922;SDS011;45778;51.142;3.732;2022-10-14T04:56:37;47.22;;;28.15;;
59922;SDS011;45778;51.142;3.732;2022-10-14T04:59:03;50.88;;;27.75;;
59922;SDS011;45778;51.142;3.732;2022-10-14T05:01:29;53.03;;;28.77;;
59922;SDS011;45778;51.142;3.732;2022-10-14T05:03:55;58.00;;;29.80;;
59922;SDS011;45778;51.142;3.732;2022-10-14T05:06:21;52.20;;;29.23;;
59922;SDS011;45778;51.142;3.732;2022-10-14T05:08:47;57.20;;;28.63;;
59922;SDS011;45778;51.142;3.732;2022-10-14T05:11:12;55.72;;;29.13;;
59922;SDS011;45778;51.142;3.732;2022-10-14T05:13:38;57.72;;;30.10;;
59922;SDS011;45778;51.142;3.732;2022-10-14T05:16:04;57.38;;;28.15;;
59922;SDS011;45778;51.142;3.732;2022-10-14T05:18:31;56.10;;;29.73;;
59922;SDS011;45778;51.142;3.732;2022-10-14T05:20:57;63.65;;;30.90;;
59922;SDS011;45778;51.142;3.732;2022-10-14T05:23:23;61.05;;;29.92;;
59922;SDS011;45778;51.142;3.732;2022-10-14T05:25:49;52.90;;;28.85;;
59922;SDS011;45778;51.142;3.732;2022-10-14T05:28:15;61.08;;;30.67;;
59922;SDS011;45778;51.142;3.732;2022-10-14T05:30:42;60.75;;;30.27;;
59922;SDS011;45778;51.142;3.732;2022-10-14T05:33:07;52.97;;;28.35;;
59922;SDS011;45778;51.142;3.732;2022-10-14T05:35:33;61.63;;;30.15;;
59922;SDS011;45778;51.142;3.732;2022-10-14T05:37:59;56.03;;;28.58;;
59922;SDS011;45778;51.142;3.732;2022-10-14T05:40:24;58.47;;;29.98;;
59922;SDS011;45778;51.142;3.732;2022-10-14T05:42:50;60.60;;;31.55;;
59922;SDS011;45778;51.142;3.732;2022-10-14T05:45:16;61.33;;;30.42;;
59922;SDS011;45778;51.142;3.732;2022-10-14T05:47:42;59.88;;;30.98;;
59922;SDS011;45778;51.142;3.732;2022-10-14T05:50:08;59.15;;;28.70;;
59922;SDS011;45778;51.142;3.732;2022-10-14T05:52:34;59.97;;;27.20;;
59922;SDS011;45778;51.142;3.732;2022-10-14T05:55:00;49.95;;;27.60;;
59922;SDS011;45778;51.142;3.732;2022-10-14T05:57:26;56.85;;;26.73;;
59922;SDS011;45778;51.142;3.732;2022-10-14T05:59:52;49.15;;;26.23;;
59922;SDS011;45778;51.142;3.732;2022-10-14T06:02:18;60.15;;;28.38;;
59922;SDS011;45778;51.142;3.732;2022-10-14T06:04:44;46.70;;;25.80;;
59922;SDS011;45778;51.142;3.732;2022-10-14T06:07:10;50.35;;;25.75;;
59922;SDS011;45778;51.142;3.732;2022-10-14T06:09:36;44.95;;;24.98;;
59922;SDS011;45778;51.142;3.732;2022-10-14T06:12:02;39.13;;;20.98;;
59922;SDS011;45778;51.142;3.732;2022-10-14T06:14:28;36.80;;;19.48;;
59922;SDS011;45778;51.142;3.732;2022-10-14T06:16:54;37.22;;;19.98;;
59922;SDS011;45778;51.142;3.732;2022-10-14T06:19:20;28.45;;;17.80;;
59922;SDS011;45778;51.142;3.732;2022-10-14T06:21:46;27.73;;;16.50;;
59922;SDS011;45778;51.142;3.732;2022-10-14T06:24:12;29.95;;;18.20;;
59922;SDS011;45778;51.142;3.732;2022-10-14T06:26:38;37.33;;;21.00;;
59922;SDS011;45778;51.142;3.732;2022-10-14T06:29:04;27.55;;;18.20;;
59922;SDS011;45778;51.142;3.732;2022-10-14T06:31:30;29.15;;;18.10;;
59922;SDS011;45778;51.142;3.732;2022-10-14T06:33:56;28.85;;;17.48;;
59922;SDS011;45778;51.142;3.732;2022-10-14T06:36:21;23.73;;;14.68;;
59922;SDS011;45778;51.142;3.732;2022-10-14T06:38:47;21.90;;;14.65;;
59922;SDS011;45778;51.142;3.732;2022-10-14T06:41:13;18.52;;;14.02;;
59922;SDS011;45778;51.142;3.732;2022-10-14T06:43:39;20.35;;;13.68;;
59922;SDS011;45778;51.142;3.732;2022-10-14T06:46:04;18.52;;;14.60;;
59922;SDS011;45778;51.142;3.732;2022-10-14T06:48:30;17.92;;;14.35;;
59922;SDS011;45778;51.142;3.732;2022-10-14T06:50:59;19.48;;;14.02;;
59922;SDS011;45778;51.142;3.732;2022-10-14T06:53:26;19.45;;;14.48;;
59922;SDS011;45778;51.142;3.732;2022-10-14T06:56:02;18.95;;;14.02;;
59922;SDS011;45778;51.142;3.732;2022-10-14T06:58:30;20.42;;;15.38;;
59922;SDS011;45778;51.142;3.732;2022-10-14T07:01:00;18.45;;;13.80;;
59922;SDS011;45778;51.142;3.732;2022-10-14T07:03:27;22.25;;;16.02;;
59922;SDS011;45778;51.142;3.732;2022-10-14T07:05:53;19.52;;;15.45;;
59922;SDS011;45778;51.142;3.732;2022-10-14T07:08:18;18.63;;;14.57;;
59922;SDS011;45778;51.142;3.732;2022-10-14T07:10:45;21.42;;;15.48;;
59922;SDS011;45778;51.142;3.732;2022-10-14T07:13:11;19.55;;;14.65;;
59922;SDS011;45778;51.142;3.732;2022-10-14T07:15:37;21.55;;;15.75;;
59922;SDS011;45778;51.142;3.732;2022-10-14T07:18:03;21.02;;;15.18;;
59922;SDS011;45778;51.142;3.732;2022-10-14T07:20:30;21.13;;;15.65;;
59922;SDS011;45778;51.142;3.732;2022-10-14T07:22:55;18.98;;;14.75;;
59922;SDS011;45778;51.142;3.732;2022-10-14T07:25:21;21.05;;;14.93;;
59922;SDS011;45778;51.142;3.732;2022-10-14T07:27:47;17.75;;;15.43;;
59922;SDS011;45778;51.142;3.732;2022-10-14T07:30:12;21.92;;;15.60;;
59922;SDS011;45778;51.142;3.732;2022-10-14T07:32:38;19.80;;;15.48;;
59922;SDS011;45778;51.142;3.732;2022-10-14T07:35:04;21.95;;;16.23;;
59922;SDS011;45778;51.142;3.732;2022-10-14T07:37:30;19.65;;;14.55;;
59922;SDS011;45778;51.142;3.732;2022-10-14T07:39:55;19.38;;;14.73;;
59922;SDS011;45778;51.142;3.732;2022-10-14T07:42:21;19.60;;;14.35;;
59922;SDS011;45778;51.142;3.732;2022-10-14T07:44:47;21.17;;;14.60;;
59922;SDS011;45778;51.142;3.732;2022-10-14T07:47:13;15.95;;;13.38;;
59922;SDS011;45778;51.142;3.732;2022-10-14T07:49:38;16.00;;;13.10;;
59922;SDS011;45778;51.142;3.732;2022-10-14T07:52:04;15.50;;;12.13;;
59922;SDS011;45778;51.142;3.732;2022-10-14T07:54:30;15.70;;;12.05;;
59922;SDS011;45778;51.142;3.732;2022-10-14T07:56:56;16.65;;;12.38;;
59922;SDS011;45778;51.142;3.732;2022-10-14T07:59:23;13.95;;;11.40;;
59922;SDS011;45778;51.142;3.732;2022-10-14T08:01:50;14.93;;;10.75;;
59922;SDS011;45778;51.142;3.732;2022-10-14T08:04:17;14.52;;;11.20;;
59922;SDS011;45778;51.142;3.732;2022-10-14T08:06:43;16.58;;;12.27;;
59922;SDS011;45778;51.142;3.732;2022-10-14T08:09:12;14.35;;;11.27;;
59922;SDS011;45778;51.142;3.732;2022-10-14T08:11:38;11.73;;;10.45;;
59922;SDS011;45778;51.142;3.732;2022-10-14T08:14:04;16.67;;;10.50;;
59922;SDS011;45778;51.142;3.732;2022-10-14T08:16:31;14.55;;;10.93;;
59922;SDS011;45778;51.142;3.732;2022-10-14T08:18:59;14.18;;;10.75;;
59922;SDS011;45778;51.142;3.732;2022-10-14T08:21:28;11.38;;;9.80;;
59922;SDS011;45778;51.142;3.732;2022-10-14T08:23:54;12.32;;;8.95;;
59922;SDS011;45778;51.142;3.732;2022-10-14T08:28:47;13.80;;;10.65;;
59922;SDS011;45778;51.142;3.732;2022-10-14T08:31:13;12.68;;;8.90;;
59922;SDS011;45778;51.142;3.732;2022-10-14T08:33:39;10.68;;;9.20;;
59922;SDS011;45778;51.142;3.732;2022-10-14T08:36:05;11.73;;;9.00;;
59922;SDS011;45778;51.142;3.732;2022-10-14T08:38:31;11.68;;;8.50;;
59922;SDS011;45778;51.142;3.732;2022-10-14T08:43:29;9.80;;;7.55;;
59922;SDS011;45778;51.142;3.732;2022-10-14T08:46:03;10.73;;;8.10;;
59922;SDS011;45778;51.142;3.732;2022-10-14T08:48:38;9.98;;;8.38;;
59922;SDS011;45778;51.142;3.732;2022-10-14T08:51:12;9.13;;;8.00;;
59922;SDS011;45778;51.142;3.732;2022-10-14T08:53:42;9.63;;;8.63;;
59922;SDS011;45778;51.142;3.732;2022-10-14T08:56:14;9.65;;;8.60;;
59922;SDS011;45778;51.142;3.732;2022-10-14T08:58:51;10.52;;;8.45;;
59922;SDS011;45778;51.142;3.732;2022-10-14T09:01:31;9.50;;;8.50;;
59922;SDS011;45778;51.142;3.732;2022-10-14T09:04:05;10.73;;;7.85;;
59922;SDS011;45778;51.142;3.732;2022-10-14T09:06:33;9.68;;;8.15;;
59922;SDS011;45778;51.142;3.732;2022-10-14T09:09:05;11.57;;;9.15;;
59922;SDS011;45778;51.142;3.732;2022-10-14T09:11:41;11.73;;;8.68;;
59922;SDS011;45778;51.142;3.732;2022-10-14T09:14:12;11.98;;;8.68;;
59922;SDS011;45778;51.142;3.732;2022-10-14T09:16:43;13.27;;;10.35;;
59922;SDS011;45778;51.142;3.732;2022-10-14T09:19:22;13.63;;;9.60;;
59922;SDS011;45778;51.142;3.732;2022-10-14T09:21:55;11.15;;;9.55;;
59922;SDS011;45778;51.142;3.732;2022-10-14T09:26:56;13.48;;;9.85;;
59922;SDS011;45778;51.142;3.732;2022-10-14T09:29:28;11.43;;;9.48;;
59922;SDS011;45778;51.142;3.732;2022-10-14T09:32:05;11.00;;;9.52;;
59922;SDS011;45778;51.142;3.732;2022-10-14T09:34:35;12.95;;;9.60;;
59922;SDS011;45778;51.142;3.732;2022-10-14T09:39:50;12.43;;;9.13;;
59922;SDS011;45778;51.142;3.732;2022-10-14T09:42:19;11.32;;;9.05;;
59922;SDS011;45778;51.142;3.732;2022-10-14T09:50:34;13.68;;;10.05;;
59922;SDS011;45778;51.142;3.732;2022-10-14T09:53:04;11.70;;;10.15;;
59922;SDS011;45778;51.142;3.732;2022-10-14T09:55:38;14.27;;;10.70;;
59922;SDS011;45778;51.142;3.732;2022-10-14T09:58:12;16.35;;;12.00;;
59922;SDS011;45778;51.142;3.732;2022-10-14T10:00:41;14.65;;;10.63;;
59922;SDS011;45778;51.142;3.732;2022-10-14T10:03:08;13.35;;;11.52;;
59922;SDS011;45778;51.142;3.732;2022-10-14T10:06:06;15.90;;;11.90;;
59922;SDS011;45778;51.142;3.732;2022-10-14T10:08:35;14.38;;;11.70;;
59922;SDS011;45778;51.142;3.732;2022-10-14T10:11:07;14.60;;;11.55;;
59922;SDS011;45778;51.142;3.732;2022-10-14T10:13:44;15.52;;;11.82;;
59922;SDS011;45778;51.142;3.732;2022-10-14T10:16:29;15.27;;;12.23;;
59922;SDS011;45778;51.142;3.732;2022-10-14T10:18:55;16.33;;;12.23;;
59922;SDS011;45778;51.142;3.732;2022-10-14T10:21:25;16.52;;;13.65;;
59922;SDS011;45778;51.142;3.732;2022-10-14T10:28:56;20.63;;;15.82;;
59922;SDS011;45778;51.142;3.732;2022-10-14T10:34:11;26.02;;;18.13;;
59922;SDS011;45778;51.142;3.732;2022-10-14T10:36:56;25.67;;;17.17;;
59922;SDS011;45778;51.142;3.732;2022-10-14T10:40:18;23.13;;;18.35;;
59922;SDS011;45778;51.142;3.732;2022-10-14T10:46:07;26.42;;;20.65;;
59922;SDS011;45778;51.142;3.732;2022-10-14T10:59:37;24.58;;;19.63;;
59922;SDS011;45778;51.142;3.732;2022-10-14T11:11:13;25.15;;;20.67;;
59922;SDS011;45778;51.142;3.732;2022-10-14T11:16:52;24.90;;;19.70;;
59922;SDS011;45778;51.142;3.732;2022-10-14T11:19:32;27.98;;;20.17;;
59922;SDS011;45778;51.142;3.732;2022-10-14T11:22:16;23.83;;;18.73;;
59922;SDS011;45778;51.142;3.732;2022-10-14T11:28:03;22.45;;;16.98;;
59922;SDS011;45778;51.142;3.732;2022-10-14T11:30:46;21.52;;;16.63;;
59922;SDS011;45778;51.142;3.732;2022-10-14T11:36:26;23.23;;;16.65;;
59922;SDS011;45778;51.142;3.732;2022-10-14T11:42:02;18.67;;;16.20;;
59922;SDS011;45778;51.142;3.732;2022-10-14T11:44:38;18.77;;;16.65;;
59922;SDS011;45778;51.142;3.732;2022-10-14T11:47:15;16.50;;;14.65;;
59922;SDS011;45778;51.142;3.732;2022-10-14T11:49:47;16.85;;;14.50;;
59922;SDS011;45778;51.142;3.732;2022-10-14T11:52:31;15.55;;;13.90;;
59922;SDS011;45778;51.142;3.732;2022-10-14T11:55:04;17.38;;;15.45;;
59922;SDS011;45778;51.142;3.732;2022-10-14T12:00:18;11.30;;;10.02;;
59922;SDS011;45778;51.142;3.732;2022-10-14T12:05:14;12.32;;;10.75;;
59922;SDS011;45778;51.142;3.732;2022-10-14T12:10:42;14.85;;;12.57;;
59922;SDS011;45778;51.142;3.732;2022-10-14T12:13:12;13.10;;;11.73;;
59922;SDS011;45778;51.142;3.732;2022-10-14T12:15:41;15.25;;;11.48;;
59922;SDS011;45778;51.142;3.732;2022-10-14T12:18:12;12.77;;;11.18;;
59922;SDS011;45778;51.142;3.732;2022-10-14T12:20:42;11.52;;;9.65;;
59922;SDS011;45778;51.142;3.732;2022-10-14T12:23:35;11.95;;;10.55;;
59922;SDS011;45778;51.142;3.732;2022-10-14T12:36:43;13.35;;;11.02;;
59922;SDS011;45778;51.142;3.732;2022-10-14T12:44:33;11.95;;;10.85;;
59922;SDS011;45778;51.142;3.732;2022-10-14T12:47:10;13.35;;;10.75;;
59922;SDS011;45778;51.142;3.732;2022-10-14T12:49:51;12.57;;;10.63;;
59922;SDS011;45778;51.142;3.732;2022-10-14T12:52:22;10.65;;;8.00;;
59922;SDS011;45778;51.142;3.732;2022-10-14T12:55:00;10.35;;;8.18;;
59922;SDS011;45778;51.142;3.732;2022-10-14T12:57:32;13.20;;;10.73;;
59922;SDS011;45778;51.142;3.732;2022-10-14T13:00:02;10.98;;;9.65;;
59922;SDS011;45778;51.142;3.732;2022-10-14T13:05:06;11.13;;;9.95;;
59922;SDS011;45778;51.142;3.732;2022-10-14T13:07:45;11.13;;;10.02;;
59922;SDS011;45778;51.142;3.732;2022-10-14T13:21:26;13.00;;;9.70;;
59922;SDS011;45778;51.142;3.732;2022-10-14T13:24:04;14.02;;;8.68;;
59922;SDS011;45778;51.142;3.732;2022-10-14T13:39:50;10.85;;;8.85;;
59922;SDS011;45778;51.142;3.732;2022-10-14T13:42:26;13.05;;;8.48;;
59922;SDS011;45778;51.142;3.732;2022-10-14T13:44:57;9.68;;;8.50;;
59922;SDS011;45778;51.142;3.732;2022-10-14T13:47:33;10.55;;;9.15;;
59922;SDS011;45778;51.142;3.732;2022-10-14T13:50:00;11.82;;;9.63;;
59922;SDS011;45778;51.142;3.732;2022-10-14T13:52:28;10.38;;;9.27;;
59922;SDS011;45778;51.142;3.732;2022-10-14T13:55:13;12.27;;;10.13;;
59922;SDS011;45778;51.142;3.732;2022-10-14T13:57:41;15.80;;;9.55;;
59922;SDS011;45778;51.142;3.732;2022-10-14T14:00:26;10.80;;;9.32;;
59922;SDS011;45778;51.142;3.732;2022-10-14T14:02:53;12.70;;;10.15;;
59922;SDS011;45778;51.142;3.732;2022-10-14T14:05:19;12.23;;;9.82;;
59922;SDS011;45778;51.142;3.732;2022-10-14T14:07:45;10.45;;;9.35;;
59922;SDS011;45778;51.142;3.732;2022-10-14T14:10:16;11.02;;;9.43;;
59922;SDS011;45778;51.142;3.732;2022-10-14T14:12:44;10.90;;;9.82;;
59922;SDS011;45778;51.142;3.732;2022-10-14T14:15:13;10.77;;;9.68;;
59922;SDS011;45778;51.142;3.732;2022-10-14T14:17:50;13.82;;;9.95;;
59922;SDS011;45778;51.142;3.732;2022-10-14T14:20:20;10.88;;;9.77;;
59922;SDS011;45778;51.142;3.732;2022-10-14T14:22:49;11.52;;;10.05;;
59922;SDS011;45778;51.142;3.732;2022-10-14T14:27:54;12.45;;;10.85;;
59922;SDS011;45778;51.142;3.732;2022-10-14T14:30:27;11.80;;;10.57;;
59922;SDS011;45778;51.142;3.732;2022-10-14T14:33:02;13.57;;;10.80;;
59922;SDS011;45778;51.142;3.732;2022-10-14T14:35:31;12.07;;;9.57;;
59922;SDS011;45778;51.142;3.732;2022-10-14T14:37:56;13.93;;;9.90;;
59922;SDS011;45778;51.142;3.732;2022-10-14T14:40:23;12.10;;;9.82;;
59922;SDS011;45778;51.142;3.732;2022-10-14T14:42:52;12.50;;;10.05;;
59922;SDS011;45778;51.142;3.732;2022-10-14T14:47:51;13.18;;;11.20;;
59922;SDS011;45778;51.142;3.732;2022-10-14T14:50:19;13.88;;;12.00;;
59922;SDS011;45778;51.142;3.732;2022-10-14T14:52:52;14.38;;;11.77;;
59922;SDS011;45778;51.142;3.732;2022-10-14T15:01:24;14.27;;;12.77;;
59922;SDS011;45778;51.142;3.732;2022-10-14T15:03:59;15.38;;;13.77;;
59922;SDS011;45778;51.142;3.732;2022-10-14T15:06:28;16.02;;;14.10;;
59922;SDS011;45778;51.142;3.732;2022-10-14T15:08:55;18.33;;;14.65;;
59922;SDS011;45778;51.142;3.732;2022-10-14T15:11:24;16.38;;;14.30;;
59922;SDS011;45778;51.142;3.732;2022-10-14T15:13:54;18.10;;;15.82;;
59922;SDS011;45778;51.142;3.732;2022-10-14T15:16:30;16.83;;;15.07;;
59922;SDS011;45778;51.142;3.732;2022-10-14T15:21:44;18.55;;;15.63;;
59922;SDS011;45778;51.142;3.732;2022-10-14T15:24:13;17.58;;;15.35;;
59922;SDS011;45778;51.142;3.732;2022-10-14T15:26:40;18.42;;;15.15;;
59922;SDS011;45778;51.142;3.732;2022-10-14T15:29:13;17.98;;;16.08;;
59922;SDS011;45778;51.142;3.732;2022-10-14T15:31:41;18.45;;;16.48;;
59922;SDS011;45778;51.142;3.732;2022-10-14T15:34:13;18.15;;;16.35;;
59922;SDS011;45778;51.142;3.732;2022-10-14T15:36:44;19.05;;;15.88;;
59922;SDS011;45778;51.142;3.732;2022-10-14T15:39:13;19.23;;;15.82;;
59922;SDS011;45778;51.142;3.732;2022-10-14T15:41:39;17.67;;;14.57;;
59922;SDS011;45778;51.142;3.732;2022-10-14T15:44:05;16.90;;;15.20;;
59922;SDS011;45778;51.142;3.732;2022-10-14T15:46:33;17.80;;;16.02;;
59922;SDS011;45778;51.142;3.732;2022-10-14T15:49:24;32.97;;;26.35;;
59922;SDS011;45778;51.142;3.732;2022-10-14T15:51:58;18.17;;;16.27;;
59922;SDS011;45778;51.142;3.732;2022-10-14T15:54:23;25.52;;;21.48;;
59922;SDS011;45778;51.142;3.732;2022-10-14T15:56:52;17.33;;;15.57;;
59922;SDS011;45778;51.142;3.732;2022-10-14T15:59:19;18.50;;;16.60;;
59922;SDS011;45778;51.142;3.732;2022-10-14T16:01:44;24.67;;;18.48;;
59922;SDS011;45778;51.142;3.732;2022-10-14T16:04:15;27.77;;;24.60;;
59922;SDS011;45778;51.142;3.732;2022-10-14T16:06:48;20.55;;;16.38;;
59922;SDS011;45778;51.142;3.732;2022-10-14T16:09:17;22.65;;;16.15;;
59922;SDS011;45778;51.142;3.732;2022-10-14T16:11:43;19.58;;;16.70;;
59922;SDS011;45778;51.142;3.732;2022-10-14T16:14:09;19.48;;;16.42;;
59922;SDS011;45778;51.142;3.732;2022-10-14T16:16:38;20.30;;;17.73;;
59922;SDS011;45778;51.142;3.732;2022-10-14T16:19:06;21.88;;;18.02;;
59922;SDS011;45778;51.142;3.732;2022-10-14T16:21:32;23.48;;;17.33;;
59922;SDS011;45778;51.142;3.732;2022-10-14T16:23:58;22.23;;;18.65;;
59922;SDS011;45778;51.142;3.732;2022-10-14T16:26:25;34.03;;;19.90;;
59922;SDS011;45778;51.142;3.732;2022-10-14T16:28:51;29.55;;;22.73;;
59922;SDS011;45778;51.142;3.732;2022-10-14T16:31:16;29.90;;;20.30;;
59922;SDS011;45778;51.142;3.732;2022-10-14T16:33:42;21.80;;;18.83;;
59922;SDS011;45778;51.142;3.732;2022-10-14T16:36:09;21.25;;;18.85;;
59922;SDS011;45778;51.142;3.732;2022-10-14T16:38:39;22.58;;;19.13;;
59922;SDS011;45778;51.142;3.732;2022-10-14T16:41:05;26.00;;;18.58;;
59922;SDS011;45778;51.142;3.732;2022-10-14T16:43:33;23.67;;;19.27;;
59922;SDS011;45778;51.142;3.732;2022-10-14T16:45:59;24.25;;;21.70;;
59922;SDS011;45778;51.142;3.732;2022-10-14T16:48:27;24.48;;;19.65;;
59922;SDS011;45778;51.142;3.732;2022-10-14T16:50:54;28.50;;;21.63;;
59922;SDS011;45778;51.142;3.732;2022-10-14T16:53:20;28.33;;;25.20;;
59922;SDS011;45778;51.142;3.732;2022-10-14T16:56:04;25.98;;;21.10;;
59922;SDS011;45778;51.142;3.732;2022-10-14T16:58:53;29.17;;;24.15;;
59922;SDS011;45778;51.142;3.732;2022-10-14T17:01:20;36.63;;;26.95;;
59922;SDS011;45778;51.142;3.732;2022-10-14T17:03:45;263.25;;;211.20;;
59922;SDS011;45778;51.142;3.732;2022-10-14T17:06:11;165.35;;;116.05;;
59922;SDS011;45778;51.142;3.732;2022-10-14T17:08:38;87.50;;;61.22;;